createdAt,value
2018-09-25T00:01:54.226Z,60518.82
2018-09-25T00:04:27.708Z,60513.73
2018-09-25T00:07:01.168Z,60468.00
2018-09-25T00:09:34.636Z,60454.79
2018-09-25T00:12:08.110Z,60495.44
2018-09-25T00:14:41.591Z,60473.09
2018-09-25T00:17:15.116Z,60511.70
2018-09-25T00:19:48.571Z,60488.33
2018-09-25T00:22:22.103Z,60479.18
2018-09-25T00:24:55.558Z,60469.02
2018-09-25T00:27:29.108Z,60493.41
2018-09-25T00:30:02.623Z,60507.64
2018-09-25T00:32:36.111Z,60494.43
2018-09-25T00:35:09.655Z,60522.88
2018-09-25T00:37:43.142Z,60495.44
2018-09-25T00:40:16.637Z,60488.33
2018-09-25T00:42:50.093Z,60487.31
2018-09-25T00:45:23.559Z,60475.12
2018-09-25T00:47:57.048Z,60521.86
2018-09-25T00:50:30.604Z,60501.54
2018-09-25T00:53:04.149Z,60478.16
2018-09-25T00:55:37.619Z,60516.78
2018-09-25T00:58:11.166Z,60496.46
2018-09-25T01:00:44.649Z,60486.29
2018-09-25T01:03:18.230Z,60483.25
2018-09-25T01:05:51.651Z,60477.15
2018-09-25T01:08:25.092Z,60503.57
2018-09-25T01:10:58.591Z,60501.54
2018-09-25T01:13:32.056Z,60514.75
2018-09-25T01:16:05.508Z,60501.54
2018-09-25T01:18:39.036Z,60486.29
2018-09-25T01:21:12.814Z,60492.39
2018-09-25T01:23:46.416Z,60506.62
2018-09-25T01:26:20.056Z,60491.38
2018-09-25T01:28:53.606Z,60507.64
2018-09-25T01:31:27.132Z,60498.49
2018-09-25T01:34:00.680Z,60480.20
2018-09-25T01:36:34.171Z,60501.54
2018-09-25T01:39:07.644Z,60511.70
2018-09-25T01:41:41.120Z,60534.06
2018-09-25T01:44:14.731Z,60500.52
2018-09-25T01:46:48.300Z,60487.31
2018-09-25T01:49:21.859Z,60487.31
2018-09-25T01:51:55.404Z,60504.59
2018-09-25T01:54:28.944Z,60527.96
2018-09-25T01:57:02.419Z,60500.52
2018-09-25T01:59:35.883Z,60495.44
2018-09-25T02:02:09.422Z,60493.41
2018-09-25T02:04:42.863Z,60499.50
2018-09-25T02:07:16.386Z,60471.05
2018-09-25T02:09:49.820Z,60518.82
2018-09-25T02:12:23.300Z,60506.62
2018-09-25T02:14:56.833Z,60505.60
2018-09-25T02:17:30.252Z,60501.54
2018-09-25T02:20:03.743Z,60534.06
2018-09-25T02:22:37.243Z,60479.18
2018-09-25T02:25:10.660Z,60502.55
2018-09-25T02:27:44.184Z,60491.38
2018-09-25T02:30:17.668Z,60499.50
2018-09-25T02:32:51.248Z,60500.52
2018-09-25T02:35:24.803Z,60513.73
2018-09-25T02:37:58.423Z,60483.25
2018-09-25T02:40:31.831Z,60494.43
2018-09-25T02:43:05.379Z,60490.36
2018-09-25T02:45:38.991Z,60491.38
2018-09-25T02:48:12.555Z,60521.86
2018-09-25T02:50:46.004Z,60488.33
2018-09-25T02:53:19.525Z,60489.34
2018-09-25T02:55:53.072Z,60510.68
2018-09-25T02:58:26.560Z,60486.29
2018-09-25T03:00:59.978Z,60494.43
2018-09-25T03:03:33.524Z,60496.46
2018-09-25T03:06:07.211Z,60525.93
2018-09-25T03:08:40.607Z,60499.50
2018-09-25T03:11:14.015Z,60515.77
2018-09-25T03:13:47.562Z,60534.06
2018-09-25T03:16:21.084Z,60525.93
2018-09-25T03:18:54.547Z,60503.57
2018-09-25T03:21:27.979Z,60489.34
2018-09-25T03:24:01.653Z,60478.16
2018-09-25T03:26:35.015Z,60485.28
2018-09-25T03:29:08.534Z,60535.07
2018-09-25T03:31:42.010Z,60490.36
2018-09-25T03:34:15.577Z,60525.93
2018-09-25T03:36:49.115Z,60503.57
2018-09-25T03:39:22.688Z,60536.09
2018-09-25T03:41:56.251Z,60511.70
2018-09-25T03:44:29.839Z,60510.68
2018-09-25T03:47:03.288Z,60519.83
2018-09-25T03:49:36.767Z,60501.54
2018-09-25T03:52:10.217Z,60497.47
2018-09-25T03:54:43.723Z,60538.12
2018-09-25T03:57:17.222Z,60500.52
2018-09-25T03:59:50.706Z,60521.86
2018-09-25T04:02:24.140Z,60489.34
2018-09-25T04:04:57.711Z,60490.36
2018-09-25T04:07:31.225Z,60493.41
2018-09-25T04:10:04.727Z,60498.49
2018-09-25T04:12:38.167Z,60508.65
2018-09-25T04:15:11.728Z,60532.02
2018-09-25T04:17:45.199Z,60484.26
2018-09-25T04:20:18.711Z,60494.43
2018-09-25T04:22:52.163Z,60512.72
2018-09-25T04:25:25.729Z,60513.73
2018-09-25T04:27:59.276Z,60527.96
2018-09-25T04:30:32.707Z,60500.52
2018-09-25T04:33:06.156Z,60487.31
2018-09-25T04:35:39.565Z,60498.49
2018-09-25T04:38:13.129Z,60522.88
2018-09-25T04:40:46.605Z,60533.04
2018-09-25T04:43:20.127Z,60518.82
2018-09-25T04:45:53.711Z,60506.62
2018-09-25T04:48:27.145Z,60496.46
2018-09-25T04:51:00.473Z,60518.82
2018-09-25T04:53:33.975Z,60507.64
2018-09-25T04:56:07.608Z,60524.91
2018-09-25T04:58:41.140Z,60521.86
2018-09-25T05:01:14.824Z,60485.28
2018-09-25T05:03:48.177Z,60508.65
2018-09-25T05:06:21.739Z,60542.19
2018-09-25T05:08:55.157Z,60529.99
2018-09-25T05:11:28.648Z,60516.78
2018-09-25T05:14:02.144Z,60520.85
2018-09-25T05:16:35.608Z,60508.65
2018-09-25T05:19:09.191Z,60487.31
2018-09-25T05:21:42.596Z,60549.30
2018-09-25T05:24:16.025Z,60519.83
2018-09-25T05:26:49.476Z,60527.96
2018-09-25T05:29:22.971Z,60507.64
2018-09-25T05:31:56.404Z,60532.02
2018-09-25T05:34:29.889Z,60520.85
2018-09-25T05:37:03.377Z,60501.54
2018-09-25T05:39:36.871Z,60531.01
2018-09-25T05:42:10.375Z,60546.25
2018-09-25T05:44:43.962Z,60516.78
2018-09-25T05:47:17.539Z,60517.80
2018-09-25T05:49:51.089Z,60525.93
2018-09-25T05:52:24.641Z,60520.85
2018-09-25T05:54:58.122Z,60543.20
2018-09-25T05:57:31.675Z,60526.95
2018-09-25T06:00:05.252Z,60528.98
2018-09-25T06:02:38.766Z,60507.64
2018-09-25T06:05:12.674Z,60522.88
2018-09-25T06:07:46.057Z,60513.73
2018-09-25T06:10:19.572Z,60525.93
2018-09-25T06:12:53.014Z,60574.71
2018-09-25T06:15:26.464Z,60514.75
2018-09-25T06:17:59.881Z,60503.57
2018-09-25T06:20:33.368Z,60535.07
2018-09-25T06:23:07.028Z,60486.29
2018-09-25T06:25:40.451Z,60495.44
2018-09-25T06:28:13.879Z,60506.62
2018-09-25T06:30:47.448Z,60493.41
2018-09-25T06:33:20.924Z,60522.88
2018-09-25T06:35:54.483Z,60515.77
2018-09-25T06:38:27.960Z,60519.83
2018-09-25T06:41:01.474Z,60535.07
2018-09-25T06:43:34.917Z,60522.88
2018-09-25T06:46:08.400Z,60516.78
2018-09-25T06:48:41.846Z,60523.89
2018-09-25T06:51:15.347Z,60508.65
2018-09-25T06:53:48.896Z,60558.45
2018-09-25T06:56:22.397Z,60502.55
2018-09-25T06:58:55.846Z,60531.01
2018-09-25T07:01:29.321Z,60526.95
2018-09-25T07:04:02.765Z,60521.86
2018-09-25T07:06:36.351Z,60532.02
2018-09-25T07:09:11.993Z,60513.73
2018-09-25T07:11:45.442Z,60490.36
2018-09-25T07:14:18.928Z,60501.54
2018-09-25T07:16:52.395Z,60497.47
2018-09-25T07:19:25.930Z,60497.47
2018-09-25T07:21:59.394Z,60494.43
2018-09-25T07:24:32.970Z,60506.62
2018-09-25T07:27:06.376Z,60484.26
2018-09-25T07:29:39.827Z,60505.60
2018-09-25T07:32:13.276Z,60502.55
2018-09-25T07:34:46.787Z,60477.15
2018-09-25T07:37:20.241Z,60495.44
2018-09-25T07:39:53.725Z,60463.94
2018-09-25T07:42:27.254Z,60526.95
2018-09-25T07:45:00.799Z,60524.91
2018-09-25T07:47:40.895Z,60503.57
2018-09-25T07:50:14.303Z,60519.83
2018-09-25T07:55:26.385Z,60520.85
2018-09-25T07:57:59.791Z,60482.23
2018-09-25T08:00:33.300Z,60534.06
2018-09-25T08:03:06.802Z,60502.55
2018-09-25T08:05:40.336Z,60532.02
2018-09-25T08:08:13.780Z,60503.57
2018-09-25T08:10:47.338Z,60511.70
2018-09-25T08:13:20.794Z,60504.59
2018-09-25T08:15:54.228Z,60537.11
2018-09-25T08:18:27.686Z,60524.91
2018-09-25T08:21:01.240Z,60463.94
2018-09-25T08:23:34.771Z,60490.36
2018-09-25T08:26:08.204Z,60511.70
2018-09-25T08:28:41.695Z,60483.25
2018-09-25T08:31:15.176Z,60479.18
2018-09-25T08:33:48.736Z,60507.64
2018-09-25T08:36:22.259Z,60513.73
2018-09-25T08:38:55.880Z,60488.33
2018-09-25T08:41:29.385Z,60484.26
2018-09-25T08:44:02.876Z,60511.70
2018-09-25T08:46:36.428Z,60471.05
2018-09-25T08:49:09.875Z,60490.36
2018-09-25T08:51:43.315Z,60444.63
2018-09-25T08:54:16.756Z,60459.87
2018-09-25T08:56:50.175Z,60490.36
2018-09-25T08:59:23.650Z,60494.43
2018-09-25T09:01:57.107Z,60492.39
2018-09-25T09:04:30.666Z,60475.12
2018-09-25T09:07:04.175Z,60466.99
2018-09-25T09:09:37.636Z,60481.21
2018-09-25T09:12:11.083Z,60468.00
2018-09-25T09:14:44.565Z,60483.25
2018-09-25T09:17:18.076Z,60473.09
2018-09-25T09:19:51.652Z,60466.99
2018-09-25T09:22:25.176Z,60479.18
2018-09-25T09:24:58.620Z,60471.05
2018-09-25T09:27:32.141Z,60444.63
2018-09-25T09:30:05.734Z,60478.16
2018-09-25T09:32:39.351Z,60460.89
2018-09-25T09:35:12.879Z,60445.65
2018-09-25T09:37:46.187Z,60441.58
2018-09-25T09:40:19.682Z,60438.53
2018-09-25T09:42:53.164Z,60423.29
2018-09-25T09:45:26.695Z,60414.14
2018-09-25T09:48:00.253Z,60437.52
2018-09-25T09:50:33.782Z,60425.32
2018-09-25T09:53:07.164Z,60409.07
2018-09-25T09:55:40.627Z,60430.40
2018-09-25T09:58:14.053Z,60390.77
2018-09-25T10:00:47.578Z,60416.18
2018-09-25T10:03:21.142Z,60371.46
2018-09-25T10:05:54.576Z,60406.02
2018-09-25T10:08:28.086Z,60374.52
2018-09-25T10:11:01.379Z,60384.68
2018-09-25T10:13:34.805Z,60375.53
2018-09-25T10:16:08.311Z,60397.89
2018-09-25T10:18:41.798Z,60375.53
2018-09-25T10:21:15.206Z,60371.46
2018-09-25T10:23:48.681Z,60369.43
2018-09-25T10:26:22.220Z,60361.30
2018-09-25T10:28:55.743Z,60349.11
2018-09-25T10:31:29.298Z,60342.00
2018-09-25T10:34:02.826Z,60343.01
2018-09-25T10:36:36.252Z,60354.19
2018-09-25T10:39:11.707Z,60350.12
2018-09-25T10:41:45.268Z,60342.00
2018-09-25T10:44:18.694Z,60348.09
2018-09-25T10:46:52.155Z,60335.90
2018-09-25T10:49:25.660Z,60327.77
2018-09-25T10:51:59.146Z,60328.79
2018-09-25T10:54:32.583Z,60315.57
2018-09-25T10:57:06.168Z,60347.08
2018-09-25T10:59:39.707Z,60325.74
2018-09-25T11:02:13.202Z,60348.09
2018-09-25T11:04:46.658Z,60353.18
2018-09-25T11:07:20.083Z,60317.61
2018-09-25T11:09:53.627Z,60361.30
2018-09-25T11:12:27.178Z,60353.18
2018-09-25T11:15:00.744Z,60357.24
2018-09-25T11:17:34.262Z,60377.56
2018-09-25T11:20:07.767Z,60394.84
2018-09-25T11:22:41.256Z,60384.68
2018-09-25T11:25:14.655Z,60358.25
2018-09-25T11:27:48.074Z,60363.34
2018-09-25T11:30:21.569Z,60365.37
2018-09-25T11:32:55.080Z,60375.53
2018-09-25T11:35:28.732Z,60375.53
2018-09-25T11:38:02.171Z,60387.72
2018-09-25T11:40:35.701Z,60380.61
2018-09-25T11:43:09.194Z,60379.59
2018-09-25T11:45:42.633Z,60363.34
2018-09-25T11:48:16.094Z,60345.04
2018-09-25T11:50:49.511Z,60337.93
2018-09-25T11:53:22.935Z,60353.18
2018-09-25T11:55:56.492Z,60345.04
2018-09-25T11:58:29.995Z,60352.16
2018-09-25T12:01:03.435Z,60338.95
2018-09-25T12:03:36.963Z,60324.72
2018-09-25T12:06:10.446Z,60345.04
2018-09-25T12:08:43.935Z,60334.88
2018-09-25T12:11:17.418Z,60314.56
2018-09-25T12:13:51.008Z,60295.25
2018-09-25T12:16:24.571Z,60309.48
2018-09-25T12:18:58.024Z,60332.85
2018-09-25T12:21:31.492Z,60350.12
2018-09-25T12:24:04.888Z,60320.66
2018-09-25T12:26:38.346Z,60352.16
2018-09-25T12:29:11.773Z,60339.96
2018-09-25T12:31:45.319Z,60323.71
2018-09-25T12:34:18.799Z,60332.85
2018-09-25T12:36:52.351Z,60335.90
2018-09-25T12:39:25.754Z,60335.90
2018-09-25T12:41:59.202Z,60313.54
2018-09-25T12:44:32.741Z,60363.34
2018-09-25T12:47:06.320Z,60362.32
2018-09-25T12:49:39.885Z,60377.56
2018-09-25T12:52:13.434Z,60380.61
2018-09-25T12:54:47.032Z,60372.48
2018-09-25T12:57:20.626Z,60395.86
2018-09-25T12:59:54.328Z,60351.14
2018-09-25T13:02:27.828Z,60385.69
2018-09-25T13:05:02.179Z,60397.89
2018-09-25T13:07:35.959Z,60379.59
2018-09-25T13:10:09.551Z,60352.16
2018-09-25T13:12:42.955Z,60356.22
2018-09-25T13:15:16.435Z,60364.35
2018-09-25T13:17:49.947Z,60356.22
2018-09-25T13:20:23.472Z,60362.32
2018-09-25T13:22:57.008Z,60366.39
2018-09-25T13:25:30.647Z,60339.96
2018-09-25T13:28:04.050Z,60359.27
2018-09-25T13:30:37.648Z,60353.18
2018-09-25T13:33:11.347Z,60362.32
2018-09-25T13:35:44.864Z,60337.93
2018-09-25T13:38:18.259Z,60352.16
2018-09-25T13:40:51.746Z,60322.69
2018-09-25T13:43:25.301Z,60348.09
2018-09-25T13:45:58.785Z,60345.04
2018-09-25T13:48:32.398Z,60348.09
2018-09-25T13:51:05.959Z,60330.82
2018-09-25T13:53:39.299Z,60369.43
2018-09-25T13:56:12.830Z,60358.25
2018-09-25T13:58:46.176Z,60362.32
2018-09-25T14:01:19.693Z,60365.37
2018-09-25T14:03:53.233Z,60339.96
2018-09-25T14:06:26.677Z,60354.19
2018-09-25T14:09:00.146Z,60340.98
2018-09-25T14:11:33.708Z,60345.04
2018-09-25T14:14:07.263Z,60343.01
2018-09-25T14:16:40.724Z,60347.08
2018-09-25T14:19:14.299Z,60336.91
2018-09-25T14:21:47.765Z,60340.98
2018-09-25T14:24:21.302Z,60361.30
2018-09-25T14:26:54.812Z,60338.95
2018-09-25T14:29:28.243Z,60327.77
2018-09-25T14:32:01.736Z,60338.95
2018-09-25T14:34:35.297Z,60340.98
2018-09-25T14:37:08.866Z,60340.98
2018-09-25T14:39:42.286Z,60324.72
2018-09-25T14:42:15.757Z,60342.00
2018-09-25T14:44:49.227Z,60315.57
2018-09-25T14:47:22.731Z,60345.04
2018-09-25T14:49:56.322Z,60319.64
2018-09-25T14:52:29.781Z,60336.91
2018-09-25T14:55:03.324Z,60348.09
2018-09-25T14:57:36.751Z,60345.04
2018-09-25T15:00:10.631Z,60358.25
2018-09-25T15:02:44.011Z,60359.27
2018-09-25T15:05:17.447Z,60344.03
2018-09-25T15:07:50.924Z,60350.12
2018-09-25T15:10:24.492Z,60345.04
2018-09-25T15:12:57.965Z,60343.01
2018-09-25T15:15:31.583Z,60366.39
2018-09-25T15:18:05.268Z,60367.40
2018-09-25T15:20:38.895Z,60334.88
2018-09-25T15:23:12.354Z,60376.55
2018-09-25T15:25:45.908Z,60348.09
2018-09-25T15:28:19.462Z,60367.40
2018-09-25T15:30:53.044Z,60337.93
2018-09-25T15:33:26.479Z,60320.66
2018-09-25T15:35:59.980Z,60363.34
2018-09-25T15:38:33.495Z,60360.29
2018-09-25T15:41:07.049Z,60363.34
2018-09-25T15:43:40.568Z,60348.09
2018-09-25T15:46:13.994Z,60335.90
2018-09-25T15:48:47.472Z,60349.11
2018-09-25T15:51:20.913Z,60350.12
2018-09-25T15:53:54.387Z,60354.19
2018-09-25T15:56:27.956Z,60361.30
2018-09-25T15:59:01.371Z,60367.40
2018-09-25T16:01:34.864Z,60342.00
2018-09-25T16:04:08.292Z,60379.59
2018-09-25T16:06:41.867Z,60361.30
2018-09-25T16:09:15.347Z,60357.24
2018-09-25T16:11:48.897Z,60361.30
2018-09-25T16:14:22.407Z,60359.27
2018-09-25T16:16:56.076Z,60377.56
2018-09-25T16:19:30.005Z,60354.19
2018-09-25T16:22:04.225Z,60372.48
2018-09-25T16:24:38.662Z,60378.58
2018-09-25T16:27:12.253Z,60369.43
2018-09-25T16:29:47.460Z,60348.09
2018-09-25T16:32:21.610Z,60359.27
2018-09-25T16:34:55.488Z,60379.59
2018-09-25T16:37:29.015Z,60346.06
2018-09-25T16:40:03.333Z,60371.46
2018-09-25T16:42:36.957Z,60383.66
2018-09-25T16:45:10.943Z,60370.45
2018-09-25T16:47:44.540Z,60384.68
2018-09-25T16:50:18.195Z,60399.92
2018-09-25T16:52:52.325Z,60379.59
2018-09-25T16:55:26.042Z,60384.68
2018-09-25T16:58:00.609Z,60376.55
2018-09-25T17:00:34.198Z,60375.53
2018-09-25T17:03:07.954Z,60371.46
2018-09-25T17:05:41.501Z,60369.43
2018-09-25T17:08:15.056Z,60388.74
2018-09-25T17:10:48.555Z,60405.00
2018-09-25T17:13:22.343Z,60417.20
2018-09-25T17:15:55.675Z,60391.79
2018-09-25T17:18:29.246Z,60389.76
2018-09-25T17:21:02.736Z,60409.07
2018-09-25T17:23:36.182Z,60374.52
2018-09-25T17:26:09.779Z,60390.77
2018-09-25T17:28:43.576Z,60410.08
2018-09-25T17:31:16.967Z,60399.92
2018-09-25T17:33:50.443Z,60400.93
2018-09-25T17:36:23.950Z,60415.16
2018-09-25T17:38:57.412Z,60381.63
2018-09-25T17:41:31.017Z,60405.00
2018-09-25T17:44:04.399Z,60409.07
2018-09-25T17:46:37.961Z,60446.66
2018-09-25T17:49:11.835Z,60425.32
2018-09-25T17:51:45.386Z,60402.97
2018-09-25T17:54:18.843Z,60410.08
2018-09-25T17:56:52.295Z,60409.07
2018-09-25T17:59:25.756Z,60386.71
2018-09-25T18:01:59.335Z,60406.02
2018-09-25T18:04:32.940Z,60422.27
2018-09-25T18:07:06.671Z,60406.02
2018-09-25T18:09:41.076Z,60408.05
2018-09-25T18:12:14.593Z,60402.97
2018-09-25T18:14:49.152Z,60382.64
2018-09-25T18:17:22.623Z,60418.21
2018-09-25T18:19:56.294Z,60413.13
2018-09-25T18:22:29.857Z,60416.18
2018-09-25T18:25:03.374Z,60401.95
2018-09-25T18:27:36.882Z,60418.21
2018-09-25T18:30:10.460Z,60444.63
2018-09-25T18:32:44.053Z,60416.18
2018-09-25T18:35:17.659Z,60419.23
2018-09-25T18:37:51.189Z,60425.32
2018-09-25T18:40:24.849Z,60414.14
2018-09-25T18:42:58.310Z,60419.23
2018-09-25T18:45:31.820Z,60436.50
2018-09-25T18:48:05.401Z,60415.16
2018-09-25T18:50:39.085Z,60429.39
2018-09-25T18:53:12.511Z,60430.40
2018-09-25T18:55:46.108Z,60418.21
2018-09-25T18:58:19.691Z,60435.48
2018-09-25T19:00:54.023Z,60436.50
2018-09-25T19:03:27.907Z,60434.47
2018-09-25T19:06:01.910Z,60429.39
2018-09-25T19:08:35.497Z,60440.57
2018-09-25T19:11:09.158Z,60430.40
2018-09-25T19:13:42.504Z,60425.32
2018-09-25T19:16:15.979Z,60418.21
2018-09-25T19:18:49.487Z,60433.45
2018-09-25T19:21:23.035Z,60431.42
2018-09-25T19:23:57.748Z,60428.37
2018-09-25T19:26:31.271Z,60441.58
2018-09-25T19:29:04.872Z,60426.34
2018-09-25T19:31:38.512Z,60422.27
2018-09-25T19:34:12.626Z,60456.82
2018-09-25T19:36:47.120Z,60432.44
2018-09-25T19:39:21.528Z,60413.13
2018-09-25T19:41:55.241Z,60450.73
2018-09-25T19:44:28.746Z,60438.53
2018-09-25T19:47:02.228Z,60423.29
2018-09-25T19:49:35.720Z,60436.50
2018-09-25T19:52:09.258Z,60426.34
2018-09-25T19:54:42.616Z,60440.57
2018-09-25T19:57:16.567Z,60434.47
2018-09-25T19:59:50.226Z,60451.75
2018-09-25T20:02:24.379Z,60440.57
2018-09-25T20:04:57.796Z,60448.70
2018-09-25T20:07:31.367Z,60418.21
2018-09-25T20:10:04.843Z,60468.00
2018-09-25T20:12:38.837Z,60442.60
2018-09-25T20:15:12.189Z,60447.68
2018-09-25T20:17:45.675Z,60454.79
2018-09-25T20:20:19.363Z,60448.70
2018-09-25T20:22:52.844Z,60418.21
2018-09-25T20:25:26.227Z,60441.58
2018-09-25T20:27:59.746Z,60468.00
2018-09-25T20:30:33.279Z,60444.63
2018-09-25T20:33:06.820Z,60430.40
2018-09-25T20:35:40.287Z,60434.47
2018-09-25T20:38:13.737Z,60431.42
2018-09-25T20:40:47.379Z,60444.63
2018-09-25T20:43:21.037Z,60472.07
2018-09-25T20:45:54.615Z,60447.68
2018-09-25T20:48:28.148Z,60426.34
2018-09-25T20:51:01.759Z,60453.78
2018-09-25T20:53:35.312Z,60455.81
2018-09-25T20:56:08.675Z,60424.31
2018-09-25T20:58:43.191Z,60456.82
2018-09-25T21:01:16.623Z,60440.57
2018-09-25T21:03:50.094Z,60461.91
2018-09-25T21:06:23.624Z,60460.89
2018-09-25T21:08:57.143Z,60460.89
2018-09-25T21:11:30.656Z,60454.79
2018-09-25T21:14:04.182Z,60466.99
2018-09-25T21:16:37.623Z,60462.92
2018-09-25T21:19:11.157Z,60443.61
2018-09-25T21:21:44.664Z,60461.91
2018-09-25T21:24:18.080Z,60468.00
2018-09-25T21:26:51.652Z,60437.52
2018-09-25T21:29:24.991Z,60441.58
2018-09-25T21:31:58.582Z,60416.18
2018-09-25T21:34:32.002Z,60466.99
2018-09-25T21:37:05.476Z,60456.82
2018-09-25T21:39:39.064Z,60469.02
2018-09-25T21:42:12.627Z,60427.36
2018-09-25T21:44:46.160Z,60469.02
2018-09-25T21:47:19.639Z,60447.68
2018-09-25T21:49:53.114Z,60446.66
2018-09-25T21:52:26.647Z,60464.96
2018-09-25T21:55:00.075Z,60471.05
2018-09-25T21:57:33.760Z,60413.13
2018-09-25T22:00:07.052Z,60452.76
2018-09-25T22:02:40.498Z,60435.48
2018-09-25T22:05:13.953Z,60433.45
2018-09-25T22:07:47.494Z,60445.65
2018-09-25T22:10:21.031Z,60473.09
2018-09-25T22:12:54.443Z,60459.87
2018-09-25T22:15:27.960Z,60460.89
2018-09-25T22:18:01.582Z,60475.12
2018-09-25T22:20:34.871Z,60445.65
2018-09-25T22:23:08.337Z,60430.40
2018-09-25T22:25:41.768Z,60477.15
2018-09-25T22:28:15.287Z,60466.99
2018-09-25T22:30:48.580Z,60458.86
2018-09-25T22:33:22.052Z,60465.97
2018-09-25T22:35:55.507Z,60476.13
2018-09-25T22:38:29.076Z,60449.71
2018-09-25T22:41:02.491Z,60460.89
2018-09-25T22:43:36.100Z,60462.92
2018-09-25T22:46:09.579Z,60462.92
2018-09-25T22:48:43.195Z,60441.58
2018-09-25T22:51:16.571Z,60478.16
2018-09-25T22:53:50.198Z,60432.44
2018-09-25T22:56:23.676Z,60454.79
2018-09-25T22:58:57.152Z,60457.84
2018-09-25T23:01:30.487Z,60473.09
2018-09-25T23:04:04.047Z,60457.84
2018-09-25T23:06:37.533Z,60470.04
2018-09-25T23:09:13.550Z,60438.53
2018-09-25T23:11:47.512Z,60464.96
2018-09-25T23:14:21.047Z,60477.15
2018-09-25T23:16:54.583Z,60444.63
2018-09-25T23:19:28.002Z,60460.89
2018-09-25T23:22:01.455Z,60435.48
2018-09-25T23:24:34.940Z,60454.79
2018-09-25T23:27:08.368Z,60480.20
2018-09-25T23:29:41.875Z,60445.65
2018-09-25T23:32:15.452Z,60446.66
2018-09-25T23:34:48.932Z,60460.89
2018-09-25T23:37:22.530Z,60441.58
2018-09-25T23:40:26.016Z,60447.68
2018-09-25T23:43:01.297Z,60445.65
2018-09-25T23:45:34.491Z,60435.48
2018-09-25T23:48:09.752Z,60438.53
2018-09-25T23:50:43.188Z,60448.70
2018-09-25T23:53:21.612Z,60477.15
2018-09-25T23:55:57.721Z,60465.97
2018-09-25T23:58:30.310Z,60453.78
